createdAt,value
2018-10-06T00:02:03.886Z,94.24
2018-10-06T00:16:38.495Z,94.60
2018-10-06T00:31:26.598Z,95.95
2018-10-06T01:22:30.946Z,95.57
2018-10-06T02:28:48.488Z,96.78
2018-10-06T03:13:54.750Z,96.19
2018-10-06T03:22:17.865Z,96.03
2018-10-06T03:23:17.655Z,96.08
2018-10-06T03:30:47.279Z,96.29
2018-10-06T03:43:58.657Z,96.91
2018-10-06T04:00:33.439Z,96.76
2018-10-06T04:01:33.419Z,96.97
2018-10-06T04:02:33.431Z,96.76
2018-10-06T04:03:33.396Z,97.59
2018-10-06T04:04:33.385Z,97.28
2018-10-06T04:05:33.373Z,97.28
2018-10-06T04:06:33.362Z,96.97
2018-10-06T04:07:33.352Z,96.97
2018-10-06T04:08:33.355Z,96.86
2018-10-06T04:09:33.328Z,96.76
2018-10-06T04:10:33.317Z,97.07
2018-10-06T04:11:33.306Z,96.86
2018-10-06T04:12:33.294Z,96.76
2018-10-06T04:13:33.294Z,96.81
2018-10-06T04:14:33.272Z,96.86
2018-10-06T04:15:33.263Z,97.43
2018-10-06T04:16:33.248Z,97.17
2018-10-06T04:17:33.237Z,97.17
2018-10-06T04:18:33.238Z,97.28
2018-10-06T04:19:33.215Z,97.38
2018-10-06T04:20:33.203Z,97.07
2018-10-06T04:21:33.195Z,97.69
2018-10-06T04:22:33.184Z,97.59
2018-10-06T04:23:33.185Z,97.38
2018-10-06T04:24:33.158Z,97.90
2018-10-06T04:25:33.146Z,96.86
2018-10-06T04:26:33.138Z,97.38
2018-10-06T04:27:33.123Z,97.07
2018-10-06T04:28:33.207Z,97.38
2018-10-06T04:29:33.105Z,97.17
2018-10-06T04:30:33.090Z,97.38
2018-10-06T04:31:33.081Z,96.97
2018-10-06T04:32:33.066Z,97.28
2018-10-06T04:33:33.066Z,97.86
2018-10-06T04:34:33.044Z,97.75
2018-10-06T04:35:33.033Z,97.59
2018-10-06T04:36:33.021Z,97.75
2018-10-06T04:37:33.010Z,97.75
2018-10-06T04:38:33.018Z,97.65
2018-10-06T04:39:32.990Z,97.75
2018-10-06T04:40:32.980Z,97.75
2018-10-06T04:41:32.965Z,97.34
2018-10-06T04:42:32.956Z,97.34
2018-10-06T04:43:32.964Z,97.75
2018-10-06T04:44:32.934Z,97.65
2018-10-06T04:45:32.919Z,97.17
2018-10-06T04:46:32.912Z,97.24
2018-10-06T04:47:32.906Z,97.07
2018-10-06T04:48:32.902Z,97.55
2018-10-06T04:49:32.881Z,97.38
2018-10-06T04:50:32.866Z,96.82
2018-10-06T04:51:32.855Z,97.24
2018-10-06T04:52:32.843Z,96.86
2018-10-06T04:53:32.844Z,97.49
2018-10-06T04:54:32.829Z,97.24
2018-10-06T04:55:32.810Z,97.44
2018-10-06T04:56:32.802Z,98.00
2018-10-06T04:57:32.791Z,97.75
2018-10-06T04:58:32.794Z,97.75
2018-10-06T04:59:32.764Z,97.55
2018-10-06T05:00:32.759Z,97.65
2018-10-06T05:01:32.741Z,97.65
2018-10-06T05:02:32.730Z,97.65
2018-10-06T05:03:32.847Z,98.17
2018-10-06T05:04:32.710Z,97.96
2018-10-06T05:05:32.697Z,97.96
2018-10-06T05:06:32.692Z,98.07
2018-10-06T05:07:32.673Z,98.54
2018-10-06T05:08:32.678Z,98.54
2018-10-06T05:09:32.650Z,98.74
2018-10-06T05:10:32.642Z,98.74
2018-10-06T05:11:32.629Z,98.54
2018-10-06T05:12:32.624Z,98.33
2018-10-06T05:13:32.633Z,98.43
2018-10-06T05:14:32.598Z,97.91
2018-10-06T05:15:32.585Z,98.54
2018-10-06T05:16:32.574Z,97.91
2018-10-06T05:17:32.564Z,98.54
2018-10-06T05:18:32.564Z,98.12
2018-10-06T05:19:32.541Z,98.22
2018-10-06T05:20:32.534Z,98.85
2018-10-06T05:21:32.521Z,98.91
2018-10-06T05:22:32.506Z,99.63
2018-10-06T05:23:32.584Z,99.43
2018-10-06T05:24:32.488Z,99.11
2018-10-06T05:25:32.479Z,99.11
2018-10-06T05:26:32.463Z,99.11
2018-10-06T05:27:32.452Z,99.17
2018-10-06T05:28:32.450Z,99.17
2018-10-06T05:29:32.427Z,99.22
2018-10-06T05:30:32.421Z,99.63
2018-10-06T05:31:32.410Z,99.22
2018-10-06T05:32:32.393Z,99.22
2018-10-06T05:33:32.394Z,99.07
2018-10-06T05:34:32.377Z,99.38
2018-10-06T05:35:32.358Z,99.17
2018-10-06T05:36:32.371Z,99.58
2018-10-06T05:37:32.340Z,99.38
2018-10-06T05:38:32.343Z,98.65
2018-10-06T05:39:32.317Z,98.75
2018-10-06T05:40:32.306Z,98.65
2018-10-06T05:41:32.296Z,99.07
2018-10-06T05:42:32.283Z,99.01
2018-10-06T05:43:32.288Z,99.07
2018-10-06T05:44:32.262Z,98.86
2018-10-06T05:45:32.249Z,98.44
2018-10-06T05:46:32.273Z,99.69
2018-10-06T05:47:32.231Z,99.54
2018-10-06T05:48:32.228Z,99.43
2018-10-06T05:49:32.204Z,99.64
2018-10-06T05:50:32.192Z,99.23
2018-10-06T05:51:32.189Z,99.23
2018-10-06T05:52:32.189Z,99.29
2018-10-06T05:53:32.174Z,99.29
2018-10-06T05:54:32.148Z,99.18
2018-10-06T05:55:32.141Z,99.49
2018-10-06T05:56:32.125Z,99.39
2018-10-06T05:57:32.112Z,99.91
2018-10-06T05:58:32.117Z,98.97
2018-10-06T05:59:32.090Z,99.02
2018-10-06T06:00:32.084Z,98.77
2018-10-06T06:01:32.067Z,98.77
2018-10-06T06:02:32.059Z,99.18
2018-10-06T06:03:32.062Z,99.29
2018-10-06T06:04:32.041Z,98.77
2018-10-06T06:05:32.025Z,98.97
2018-10-06T06:06:32.014Z,98.83
2018-10-06T06:07:32.003Z,98.83
2018-10-06T06:08:31.991Z,99.04
2018-10-06T06:09:31.996Z,98.93
2018-10-06T06:10:31.972Z,98.93
2018-10-06T06:11:31.963Z,99.04
2018-10-06T06:12:31.947Z,99.04
2018-10-06T06:13:31.935Z,98.83
2018-10-06T06:14:31.936Z,98.93
2018-10-06T06:15:31.917Z,98.78
2018-10-06T06:16:31.901Z,98.78
2018-10-06T06:17:31.890Z,98.84
2018-10-06T06:18:31.879Z,98.68
2018-10-06T06:19:31.880Z,98.53
2018-10-06T06:20:31.856Z,99.15
2018-10-06T06:21:31.849Z,99.25
2018-10-06T06:22:31.832Z,99.05
2018-10-06T06:23:31.821Z,99.56
2018-10-06T06:24:31.825Z,99.41
2018-10-06T06:25:31.820Z,99.21
2018-10-06T06:26:31.792Z,99.21
2018-10-06T06:27:31.776Z,99.10
2018-10-06T06:28:31.772Z,99.16
2018-10-06T06:29:31.765Z,98.96
2018-10-06T06:30:31.768Z,99.16
2018-10-06T06:31:31.805Z,99.16
2018-10-06T06:32:31.728Z,99.06
2018-10-06T06:33:31.711Z,99.11
2018-10-06T06:34:31.716Z,99.01
2018-10-06T06:35:31.694Z,99.47
2018-10-06T06:36:31.678Z,99.22
2018-10-06T06:37:31.670Z,99.01
2018-10-06T06:38:31.656Z,99.01
2018-10-06T06:39:31.655Z,99.22
2018-10-06T06:40:31.635Z,99.06
2018-10-06T06:41:31.620Z,99.11
2018-10-06T06:42:31.617Z,99.37
2018-10-06T06:43:31.606Z,99.11
2018-10-06T06:44:31.807Z,99.22
2018-10-06T06:45:31.576Z,99.01
2018-10-06T06:46:31.572Z,98.91
2018-10-06T06:47:31.576Z,99.22
2018-10-06T06:48:31.542Z,99.11
2018-10-06T06:49:31.545Z,99.26
2018-10-06T06:50:31.521Z,99.32
2018-10-06T06:51:31.511Z,99.01
2018-10-06T06:52:31.497Z,99.11
2018-10-06T06:53:31.494Z,99.01
2018-10-06T06:54:31.488Z,98.91
2018-10-06T06:55:31.467Z,99.11
2018-10-06T06:56:31.455Z,99.17
2018-10-06T06:57:31.444Z,98.97
2018-10-06T06:58:31.432Z,99.17
2018-10-06T06:59:31.440Z,99.23
2018-10-06T07:00:31.428Z,99.54
2018-10-06T07:01:31.397Z,98.82
2018-10-06T07:02:31.386Z,98.97
2018-10-06T07:03:31.376Z,99.07
2018-10-06T07:04:31.377Z,98.92
2018-10-06T07:05:31.389Z,99.02
2018-10-06T07:06:31.340Z,98.71
2018-10-06T07:07:31.330Z,98.71
2018-10-06T07:08:31.318Z,98.50
2018-10-06T07:09:31.318Z,99.02
2018-10-06T07:10:31.298Z,99.23
2018-10-06T07:11:31.283Z,99.02
2018-10-06T07:12:31.308Z,99.18
2018-10-06T07:13:31.263Z,98.88
2018-10-06T07:14:31.266Z,99.04
2018-10-06T07:15:31.237Z,98.72
2018-10-06T07:16:31.228Z,99.44
2018-10-06T07:17:31.245Z,99.60
2018-10-06T07:18:31.275Z,98.58
2018-10-06T07:19:31.215Z,98.53
2018-10-06T07:20:31.186Z,99.46
2018-10-06T07:21:31.178Z,99.35
2018-10-06T07:22:31.162Z,99.00
2018-10-06T07:23:31.155Z,99.05
2018-10-06T07:24:31.164Z,99.37
2018-10-06T07:25:31.158Z,98.75
2018-10-06T07:26:31.118Z,98.60
2018-10-06T07:27:31.098Z,98.60
2018-10-06T07:28:31.139Z,98.50
2018-10-06T07:29:31.096Z,98.96
2018-10-06T07:30:31.077Z,98.70
2018-10-06T07:31:31.061Z,98.35
2018-10-06T07:32:31.050Z,98.76
2018-10-06T07:33:31.038Z,98.51
2018-10-06T07:34:31.039Z,98.51
2018-10-06T07:35:31.016Z,98.92
2018-10-06T07:36:31.010Z,98.36
2018-10-06T07:37:30.994Z,98.57
2018-10-06T07:38:30.982Z,98.67
2018-10-06T07:39:30.982Z,98.16
2018-10-06T07:40:30.963Z,98.16
2018-10-06T07:41:30.948Z,98.42
2018-10-06T07:42:30.936Z,98.11
2018-10-06T07:43:30.925Z,98.00
2018-10-06T07:44:30.925Z,98.37
2018-10-06T07:45:30.904Z,97.86
2018-10-06T07:46:30.898Z,98.02
2018-10-06T07:47:30.880Z,97.91
2018-10-06T07:48:30.869Z,98.49
2018-10-06T07:49:30.878Z,98.24
2018-10-06T07:50:30.846Z,97.92
2018-10-06T07:51:30.841Z,98.39
2018-10-06T07:52:30.828Z,98.60
2018-10-06T07:53:30.816Z,97.88
2018-10-06T07:54:30.813Z,97.47
2018-10-06T07:55:30.794Z,98.24
2018-10-06T07:56:30.783Z,97.63
2018-10-06T07:57:30.770Z,98.14
2018-10-06T07:58:30.761Z,97.99
2018-10-06T07:59:30.762Z,97.64
2018-10-06T08:00:30.737Z,98.15
2018-10-06T08:01:30.725Z,97.95
2018-10-06T08:02:30.714Z,97.60
2018-10-06T08:03:30.702Z,97.70
2018-10-06T08:04:30.704Z,97.19
2018-10-06T08:05:30.679Z,95.92
2018-10-06T08:06:30.765Z,96.02
2018-10-06T08:07:30.657Z,95.61
2018-10-06T08:08:30.645Z,95.72
2018-10-06T08:09:30.671Z,95.77
2018-10-06T08:10:30.649Z,95.06
2018-10-06T08:11:30.613Z,95.73
2018-10-06T08:12:30.601Z,94.40
2018-10-06T08:13:30.589Z,94.35
2018-10-06T08:14:30.581Z,94.46
2018-10-06T08:15:30.581Z,93.85
2018-10-06T08:16:30.556Z,92.99
2018-10-06T08:17:30.543Z,93.05
2018-10-06T08:18:30.532Z,91.93
2018-10-06T08:19:30.521Z,91.42
2018-10-06T08:20:30.522Z,91.38
2018-10-06T08:21:30.498Z,91.13
2018-10-06T08:22:30.486Z,90.44
2018-10-06T08:23:30.497Z,86.80
2018-10-06T08:24:30.464Z,86.13
2018-10-06T08:25:30.465Z,82.46
2018-10-06T08:26:30.446Z,79.21
2018-10-06T08:27:30.432Z,76.01
2018-10-06T08:28:30.426Z,73.85
2018-10-06T08:29:30.411Z,74.26
2018-10-06T08:30:30.408Z,73.48
2018-10-06T08:31:30.388Z,73.27
2018-10-06T08:32:30.373Z,69.22
2018-10-06T08:33:30.362Z,67.91
2018-10-06T08:34:30.355Z,69.42
2018-10-06T08:35:30.355Z,70.03
2018-10-06T08:36:30.329Z,70.50
2018-10-06T08:37:30.316Z,68.55
2018-10-06T08:38:30.305Z,68.92
2018-10-06T08:39:30.294Z,69.22
2018-10-06T08:40:30.298Z,68.22
2018-10-06T08:41:30.275Z,66.91
2018-10-06T08:42:30.268Z,66.28
2018-10-06T08:43:30.252Z,66.82
2018-10-06T08:44:30.242Z,66.95
2018-10-06T08:45:30.246Z,66.61
2018-10-06T08:46:30.218Z,66.18
2018-10-06T08:47:30.208Z,66.78
2018-10-06T08:48:30.199Z,66.65
2018-10-06T08:49:30.186Z,66.02
2018-10-06T08:50:30.186Z,65.39
2018-10-06T08:51:30.163Z,64.55
2018-10-06T08:52:30.157Z,62.88
2018-10-06T08:53:30.143Z,64.72
2018-10-06T08:54:30.128Z,64.84
2018-10-06T08:55:30.131Z,65.45
2018-10-06T08:56:30.199Z,65.55
2018-10-06T08:57:30.094Z,65.45
2018-10-06T08:58:30.084Z,65.82
2018-10-06T08:59:30.076Z,64.95
2018-10-06T09:00:30.077Z,64.84
2018-10-06T09:01:30.053Z,64.54
2018-10-06T09:02:30.050Z,66.45
2018-10-06T09:03:30.031Z,66.45
2018-10-06T09:04:30.020Z,66.42
2018-10-06T09:05:30.021Z,65.12
2018-10-06T09:06:29.998Z,64.22
2018-10-06T09:07:29.986Z,65.12
2018-10-06T09:08:29.974Z,65.28
2018-10-06T09:09:29.971Z,64.65
2018-10-06T09:10:29.972Z,65.69
2018-10-06T09:11:29.951Z,64.28
2018-10-06T09:12:29.933Z,64.42
2018-10-06T09:13:29.922Z,65.75
2018-10-06T09:14:29.911Z,64.95
2018-10-06T09:15:29.928Z,64.62
2018-10-06T09:16:29.889Z,64.89
2018-10-06T09:17:29.880Z,63.82
2018-10-06T09:18:29.879Z,65.09
2018-10-06T09:19:29.870Z,64.98
2018-10-06T09:20:29.858Z,65.52
2018-10-06T09:21:29.839Z,66.25
2018-10-06T09:22:29.823Z,67.29
2018-10-06T09:23:29.811Z,66.38
2018-10-06T09:24:29.804Z,65.54
2018-10-06T09:25:29.802Z,66.38
2018-10-06T09:26:29.778Z,66.91
2018-10-06T09:27:29.767Z,66.31
2018-10-06T09:28:29.756Z,68.05
2018-10-06T09:29:29.746Z,68.48
2018-10-06T09:30:29.745Z,67.78
2018-10-06T09:31:29.721Z,67.78
2018-10-06T09:32:29.710Z,68.08
2018-10-06T09:33:29.700Z,67.18
2018-10-06T09:34:29.692Z,69.18
2018-10-06T09:35:29.690Z,66.77
2018-10-06T09:36:29.664Z,67.21
2018-10-06T09:37:29.654Z,68.62
2018-10-06T09:38:29.643Z,69.22
2018-10-06T09:39:29.632Z,69.02
2018-10-06T09:40:29.632Z,68.82
2018-10-06T09:41:29.625Z,69.02
2018-10-06T09:42:29.673Z,68.01
2018-10-06T09:43:29.590Z,69.02
2018-10-06T09:44:29.576Z,69.56
2018-10-06T09:45:29.576Z,69.82
2018-10-06T09:46:29.558Z,69.62
2018-10-06T09:47:29.537Z,69.12
2018-10-06T09:48:29.526Z,69.45
2018-10-06T09:49:29.515Z,70.16
2018-10-06T09:50:29.517Z,71.33
2018-10-06T09:51:29.493Z,71.13
2018-10-06T09:52:29.481Z,67.71
2018-10-06T09:53:29.526Z,69.62
2018-10-06T09:54:29.461Z,68.85
2018-10-06T09:55:29.459Z,66.74
2018-10-06T09:56:29.436Z,64.66
2018-10-06T09:57:29.424Z,62.82
2018-10-06T09:58:29.412Z,63.22
2018-10-06T09:59:29.414Z,64.73
2018-10-06T10:00:29.406Z,66.00
2018-10-06T10:01:29.383Z,66.11
2018-10-06T10:02:29.372Z,66.11
2018-10-06T10:03:29.361Z,64.80
2018-10-06T10:04:29.356Z,61.76
2018-10-06T10:05:29.372Z,62.96
2018-10-06T10:06:29.327Z,63.96
2018-10-06T10:07:29.318Z,64.87
2018-10-06T10:08:29.305Z,63.06
2018-10-06T10:09:29.344Z,62.76
2018-10-06T10:10:29.294Z,62.96
2018-10-06T10:11:29.271Z,62.46
2018-10-06T10:12:29.269Z,63.03
2018-10-06T10:13:29.248Z,64.94
2018-10-06T10:14:29.237Z,63.03
2018-10-06T10:15:29.283Z,62.53
2018-10-06T10:16:29.218Z,63.93
2018-10-06T10:17:29.376Z,63.93
2018-10-06T10:18:29.264Z,64.43
2018-10-06T10:19:29.179Z,60.93
2018-10-06T10:20:29.169Z,61.93
2018-10-06T10:21:29.175Z,62.63
2018-10-06T10:22:29.289Z,62.63
2018-10-06T10:23:29.212Z,62.63
2018-10-06T10:24:29.128Z,62.20
2018-10-06T10:25:29.123Z,59.59
2018-10-06T10:26:29.118Z,60.57
2018-10-06T10:27:29.095Z,60.66
2018-10-06T10:28:29.096Z,61.67
2018-10-06T10:29:29.076Z,60.57
2018-10-06T10:30:29.060Z,60.47
2018-10-06T10:31:29.062Z,59.53
2018-10-06T10:32:29.038Z,59.13
2018-10-06T10:33:29.035Z,59.11
2018-10-06T10:34:29.100Z,59.61
2018-10-06T10:35:29.097Z,57.43
2018-10-06T10:36:29.005Z,58.63
2018-10-06T10:37:29.101Z,59.64
2018-10-06T10:38:28.971Z,58.53
2018-10-06T10:39:29.105Z,59.91
2018-10-06T10:40:28.949Z,58.91
2018-10-06T10:41:28.962Z,57.98
2018-10-06T10:42:28.931Z,57.07
2018-10-06T10:43:28.914Z,53.82
2018-10-06T10:44:28.972Z,53.42
2018-10-06T10:45:28.899Z,54.02
2018-10-06T10:46:28.893Z,54.02
2018-10-06T10:47:28.870Z,53.89
2018-10-06T10:48:28.858Z,55.29
2018-10-06T10:49:28.905Z,54.69
2018-10-06T10:50:28.877Z,53.59
2018-10-06T10:51:28.836Z,54.49
2018-10-06T10:52:28.814Z,55.19
2018-10-06T10:53:28.805Z,52.59
2018-10-06T10:54:28.852Z,53.39
2018-10-06T10:55:28.813Z,53.37
2018-10-06T10:56:28.787Z,53.19
2018-10-06T10:57:28.764Z,53.27
2018-10-06T10:58:28.749Z,53.79
2018-10-06T10:59:28.767Z,52.59
2018-10-06T11:00:28.772Z,52.87
2018-10-06T11:01:28.732Z,53.87
2018-10-06T11:02:28.736Z,54.67
2018-10-06T11:03:28.701Z,55.07
2018-10-06T11:04:28.681Z,54.97
2018-10-06T11:05:28.670Z,54.69
2018-10-06T11:06:28.675Z,56.20
2018-10-06T11:07:28.652Z,52.39
2018-10-06T11:08:28.637Z,52.67
2018-10-06T11:09:28.626Z,51.57
2018-10-06T11:10:28.615Z,53.07
2018-10-06T11:11:28.623Z,52.37
2018-10-06T11:12:28.591Z,52.04
2018-10-06T11:13:28.580Z,51.25
2018-10-06T11:14:28.568Z,51.25
2018-10-06T11:15:28.577Z,50.65
2018-10-06T11:16:28.559Z,52.82
2018-10-06T11:17:28.535Z,52.14
2018-10-06T11:18:28.524Z,50.24
2018-10-06T11:19:28.517Z,50.04
2018-10-06T11:20:28.501Z,51.15
2018-10-06T11:21:28.511Z,54.24
2018-10-06T11:22:28.481Z,55.51
2018-10-06T11:23:28.468Z,54.14
2018-10-06T11:24:28.460Z,52.04
2018-10-06T11:25:28.456Z,51.25
2018-10-06T11:26:28.453Z,52.04
2018-10-06T11:27:28.429Z,53.84
2018-10-06T11:28:28.415Z,53.14
2018-10-06T11:29:28.405Z,52.47
2018-10-06T11:30:28.397Z,52.04
2018-10-06T11:31:28.396Z,51.84
2018-10-06T11:32:28.374Z,51.45
2018-10-06T11:33:28.359Z,50.82
2018-10-06T11:34:28.352Z,50.02
2018-10-06T11:35:28.420Z,50.22
2018-10-06T11:36:28.341Z,50.00
2018-10-06T11:37:28.395Z,49.60
2018-10-06T11:38:28.306Z,50.60
2018-10-06T11:39:28.291Z,49.80
2018-10-06T11:40:28.280Z,49.60
2018-10-06T11:41:28.280Z,49.90
2018-10-06T11:42:28.267Z,48.70
2018-10-06T11:43:28.255Z,49.77
2018-10-06T11:44:28.236Z,49.60
2018-10-06T11:45:28.224Z,50.17
2018-10-06T11:46:28.228Z,50.37
2018-10-06T11:47:28.201Z,50.17
2018-10-06T11:48:28.191Z,49.98
2018-10-06T11:49:28.181Z,50.37
2018-10-06T11:50:28.219Z,50.97
2018-10-06T11:51:28.173Z,52.17
2018-10-06T11:52:28.145Z,49.50
2018-10-06T11:53:28.133Z,51.02
2018-10-06T11:54:28.126Z,52.92
2018-10-06T11:55:28.115Z,55.04
2018-10-06T11:56:28.120Z,52.74
2018-10-06T11:57:28.089Z,52.94
2018-10-06T11:58:28.082Z,54.54
2018-10-06T11:59:28.079Z,55.04
2018-10-06T12:00:28.088Z,53.64
2018-10-06T12:01:28.088Z,52.64
2018-10-06T12:02:28.044Z,51.54
2018-10-06T12:03:28.062Z,52.37
2018-10-06T12:04:28.022Z,50.54
2018-10-06T12:05:28.011Z,52.52
2018-10-06T12:06:28.036Z,54.34
2018-10-06T12:07:27.988Z,51.04
2018-10-06T12:08:27.972Z,51.34
2018-10-06T12:09:27.974Z,52.14
2018-10-06T12:10:27.957Z,49.95
2018-10-06T12:11:27.983Z,50.84
2018-10-06T12:12:27.924Z,50.54
2018-10-06T12:13:27.920Z,51.04
2018-10-06T12:14:27.909Z,49.65
2018-10-06T12:15:27.902Z,50.74
2018-10-06T12:16:27.911Z,51.04
2018-10-06T12:17:27.872Z,50.54
2018-10-06T12:18:27.868Z,50.15
2018-10-06T12:19:27.853Z,51.84
2018-10-06T12:20:27.897Z,52.25
2018-10-06T12:21:27.884Z,53.14
2018-10-06T12:22:27.820Z,55.04
2018-10-06T12:23:27.809Z,52.47
2018-10-06T12:24:27.817Z,51.97
2018-10-06T12:25:27.782Z,52.47
2018-10-06T12:26:27.767Z,52.17
2018-10-06T12:27:27.777Z,52.57
2018-10-06T12:28:27.749Z,50.89
2018-10-06T12:29:27.744Z,54.60
2018-10-06T12:30:27.735Z,53.09
2018-10-06T12:31:27.718Z,52.19
2018-10-06T12:32:27.752Z,52.17
2018-10-06T12:33:27.700Z,51.67
2018-10-06T12:34:27.693Z,53.67
2018-10-06T12:35:27.763Z,53.69
2018-10-06T12:36:27.687Z,53.39
2018-10-06T12:37:27.697Z,54.29
2018-10-06T12:38:27.650Z,55.19
2018-10-06T12:39:27.636Z,51.59
2018-10-06T12:40:27.617Z,51.39
2018-10-06T12:41:27.602Z,53.19
2018-10-06T12:42:27.610Z,53.79
2018-10-06T12:43:27.582Z,53.19
2018-10-06T12:44:27.573Z,52.00
2018-10-06T12:45:27.564Z,53.99
2018-10-06T12:46:27.545Z,53.49
2018-10-06T12:47:27.548Z,53.99
2018-10-06T12:48:27.523Z,53.79
2018-10-06T12:49:27.512Z,53.19
2018-10-06T12:50:27.501Z,52.89
2018-10-06T12:51:27.513Z,53.19
2018-10-06T12:52:27.490Z,53.09
2018-10-06T12:53:27.467Z,53.19
2018-10-06T12:54:27.456Z,54.90
2018-10-06T12:55:27.449Z,54.69
2018-10-06T12:56:27.433Z,54.42
2018-10-06T12:57:27.434Z,53.62
2018-10-06T12:58:27.411Z,53.02
2018-10-06T12:59:27.401Z,53.82
2018-10-06T13:00:27.389Z,52.32
2018-10-06T13:01:27.377Z,53.62
2018-10-06T13:02:27.377Z,54.60
2018-10-06T13:03:27.363Z,55.12
2018-10-06T13:04:27.343Z,53.32
2018-10-06T13:05:27.332Z,55.82
2018-10-06T13:06:27.320Z,56.20
2018-10-06T13:07:27.325Z,56.39
2018-10-06T13:08:27.297Z,55.69
2018-10-06T13:09:27.290Z,57.09
2018-10-06T13:10:27.279Z,55.42
2018-10-06T13:11:27.268Z,55.22
2018-10-06T13:12:27.271Z,55.92
2018-10-06T13:13:27.244Z,55.02
2018-10-06T13:14:27.238Z,55.12
2018-10-06T13:15:27.234Z,53.92
2018-10-06T13:16:27.214Z,54.42
2018-10-06T13:17:27.214Z,54.62
2018-10-06T13:18:27.190Z,56.82
2018-10-06T13:19:27.181Z,55.12
2018-10-06T13:20:27.166Z,55.12
2018-10-06T13:21:27.155Z,53.92
2018-10-06T13:22:27.159Z,56.42
2018-10-06T13:23:27.133Z,57.92
2018-10-06T13:24:27.122Z,57.92
2018-10-06T13:25:27.115Z,52.94
2018-10-06T13:26:27.100Z,54.35
2018-10-06T13:27:27.098Z,53.24
2018-10-06T13:28:27.079Z,53.34
2018-10-06T13:29:27.065Z,54.12
2018-10-06T13:30:27.058Z,57.02
2018-10-06T13:31:27.082Z,54.52
2018-10-06T13:32:27.042Z,55.32
2018-10-06T13:33:27.021Z,56.22
2018-10-06T13:34:27.008Z,55.24
2018-10-06T13:35:26.997Z,56.02
2018-10-06T13:36:26.986Z,54.44
2018-10-06T13:37:26.995Z,57.05
2018-10-06T13:38:26.964Z,56.95
2018-10-06T13:39:26.952Z,57.98
2018-10-06T13:40:26.941Z,58.95
2018-10-06T13:41:26.932Z,55.98
2018-10-06T13:42:26.934Z,56.57
2018-10-06T13:43:26.914Z,58.48
2018-10-06T13:44:26.901Z,59.41
2018-10-06T13:45:26.890Z,60.84
2018-10-06T13:46:26.921Z,57.13
2018-10-06T13:47:26.879Z,55.63
2018-10-06T13:48:26.855Z,55.52
2018-10-06T13:49:26.863Z,55.63
2018-10-06T13:50:26.833Z,56.43
2018-10-06T13:51:26.822Z,57.23
2018-10-06T13:52:26.825Z,56.63
2018-10-06T13:53:26.798Z,56.26
2018-10-06T13:54:26.787Z,57.96
2018-10-06T13:55:26.775Z,58.36
2018-10-06T13:56:26.766Z,58.76
2018-10-06T13:57:26.771Z,58.59
2018-10-06T13:58:26.742Z,59.39
2018-10-06T13:59:26.730Z,58.59
2018-10-06T14:00:26.719Z,58.39
2018-10-06T14:01:26.708Z,58.69
2018-10-06T14:02:26.709Z,60.10
2018-10-06T14:03:26.687Z,60.49
2018-10-06T14:04:26.674Z,61.30
2018-10-06T14:05:26.668Z,59.39
2018-10-06T14:06:26.652Z,60.12
2018-10-06T14:07:26.653Z,60.39
2018-10-06T14:08:26.887Z,60.42
2018-10-06T14:09:26.618Z,60.82
2018-10-06T14:10:26.606Z,59.29
2018-10-06T14:11:26.600Z,59.82
2018-10-06T14:12:26.607Z,60.62
2018-10-06T14:13:26.577Z,60.72
2018-10-06T14:14:26.565Z,60.93
2018-10-06T14:15:26.554Z,60.93
2018-10-06T14:16:26.542Z,60.82
2018-10-06T14:17:26.543Z,61.93
2018-10-06T14:18:26.519Z,60.02
2018-10-06T14:19:26.517Z,59.92
2018-10-06T14:20:26.500Z,57.98
2018-10-06T14:21:26.485Z,60.80
2018-10-06T14:22:26.486Z,61.70
2018-10-06T14:23:26.463Z,61.70
2018-10-06T14:24:26.452Z,62.00
2018-10-06T14:25:26.441Z,60.49
2018-10-06T14:26:26.485Z,60.60
2018-10-06T14:27:26.439Z,63.00
2018-10-06T14:28:26.412Z,64.01
2018-10-06T14:29:26.396Z,65.64
2018-10-06T14:30:26.389Z,65.64
2018-10-06T14:31:26.382Z,65.64
2018-10-06T14:32:26.365Z,65.27
2018-10-06T14:33:26.364Z,66.98
2018-10-06T14:34:26.340Z,66.58
2018-10-06T14:35:26.330Z,64.10
2018-10-06T14:36:26.326Z,66.71
2018-10-06T14:37:26.313Z,67.41
2018-10-06T14:38:26.308Z,68.32
2018-10-06T14:39:26.285Z,68.95
2018-10-06T14:40:26.273Z,68.95
2018-10-06T14:41:26.262Z,68.85
2018-10-06T14:42:26.250Z,68.55
2018-10-06T14:43:26.254Z,68.25
2018-10-06T14:44:26.289Z,69.35
2018-10-06T14:45:26.221Z,68.59
2018-10-06T14:46:26.214Z,68.85
2018-10-06T14:47:26.226Z,68.59
2018-10-06T14:48:26.199Z,69.79
2018-10-06T14:49:26.181Z,69.99
2018-10-06T14:50:26.165Z,70.50
2018-10-06T14:51:26.153Z,70.89
2018-10-06T14:52:26.142Z,70.63
2018-10-06T14:53:26.142Z,70.12
2018-10-06T14:54:26.121Z,70.93
2018-10-06T14:55:26.108Z,71.13
2018-10-06T14:56:26.100Z,71.73
2018-10-06T14:57:26.084Z,71.63
2018-10-06T14:58:26.087Z,72.24
2018-10-06T14:59:26.061Z,71.87
2018-10-06T15:00:26.051Z,71.56
2018-10-06T15:01:26.039Z,71.16
2018-10-06T15:02:26.028Z,71.06
2018-10-06T15:03:26.037Z,72.47
2018-10-06T15:04:26.005Z,72.97
2018-10-06T15:05:25.994Z,73.18
2018-10-06T15:06:25.982Z,73.48
2018-10-06T15:07:25.974Z,74.12
2018-10-06T15:08:25.975Z,74.22
2018-10-06T15:09:25.948Z,73.92
2018-10-06T15:10:26.006Z,73.52
2018-10-06T15:11:25.932Z,73.72
2018-10-06T15:12:25.919Z,73.82
2018-10-06T15:13:25.918Z,74.05
2018-10-06T15:14:25.896Z,73.72
2018-10-06T15:15:25.885Z,73.32
2018-10-06T15:16:25.877Z,73.32
2018-10-06T15:17:25.861Z,74.12
2018-10-06T15:18:25.870Z,72.91
2018-10-06T15:19:25.839Z,73.52
2018-10-06T15:20:25.828Z,74.12
2018-10-06T15:21:25.827Z,75.33
2018-10-06T15:22:26.360Z,75.36
2018-10-06T15:23:25.807Z,75.36
2018-10-06T15:24:25.789Z,76.07
2018-10-06T15:25:27.244Z,75.56
2018-10-06T15:26:26.653Z,76.10
2018-10-06T15:27:25.749Z,75.40
2018-10-06T15:28:25.756Z,75.40
2018-10-06T15:29:25.727Z,75.30
2018-10-06T15:30:25.764Z,75.40
2018-10-06T15:31:25.705Z,74.90
2018-10-06T15:32:25.692Z,74.29
2018-10-06T15:33:25.698Z,74.59
2018-10-06T15:34:25.671Z,75.60
2018-10-06T15:35:25.658Z,75.30
2018-10-06T15:36:25.651Z,75.30
2018-10-06T15:37:25.637Z,74.32
2018-10-06T15:38:25.642Z,75.10
2018-10-06T15:39:25.618Z,76.61
2018-10-06T15:40:25.607Z,77.25
2018-10-06T15:41:25.600Z,77.04
2018-10-06T15:42:25.585Z,76.95
2018-10-06T15:43:25.590Z,78.16
2018-10-06T15:44:25.562Z,76.68
2018-10-06T15:45:25.551Z,77.35
2018-10-06T15:46:25.544Z,77.79
2018-10-06T15:47:25.530Z,77.79
2018-10-06T15:48:25.528Z,77.69
2018-10-06T15:49:25.509Z,77.99
2018-10-06T15:50:25.499Z,77.22
2018-10-06T15:51:25.483Z,76.82
2018-10-06T15:52:25.476Z,77.08
2018-10-06T15:53:25.474Z,77.28
2018-10-06T15:54:25.449Z,77.83
2018-10-06T15:55:25.438Z,77.32
2018-10-06T15:56:25.430Z,77.93
2018-10-06T15:57:25.415Z,78.33
2018-10-06T15:58:25.415Z,78.37
2018-10-06T15:59:25.393Z,78.47
2018-10-06T16:00:25.381Z,78.06
2018-10-06T16:01:25.370Z,79.38
2018-10-06T16:02:25.402Z,78.47
2018-10-06T16:03:25.359Z,79.28
2018-10-06T16:04:25.336Z,79.17
2018-10-06T16:05:25.325Z,79.21
2018-10-06T16:06:25.313Z,79.58
2018-10-06T16:07:25.304Z,79.21
2018-10-06T16:08:25.306Z,79.32
2018-10-06T16:09:25.290Z,79.41
2018-10-06T16:10:25.272Z,79.52
2018-10-06T16:11:25.261Z,79.21
2018-10-06T16:12:25.321Z,79.55
2018-10-06T16:13:25.250Z,79.11
2018-10-06T16:14:25.228Z,80.16
2018-10-06T16:15:25.216Z,79.92
2018-10-06T16:16:25.205Z,79.41
2018-10-06T16:17:25.193Z,80.12
2018-10-06T16:18:25.194Z,79.52
2018-10-06T16:19:25.171Z,79.41
2018-10-06T16:20:25.160Z,79.92
2018-10-06T16:21:25.202Z,79.41
2018-10-06T16:22:25.137Z,80.32
2018-10-06T16:23:25.147Z,80.26
2018-10-06T16:24:25.116Z,80.53
2018-10-06T16:25:25.116Z,80.06
2018-10-06T16:26:25.096Z,80.36
2018-10-06T16:27:25.207Z,80.57
2018-10-06T16:28:25.165Z,81.07
2018-10-06T16:29:25.070Z,80.87
2018-10-06T16:30:25.100Z,81.62
2018-10-06T16:31:25.074Z,82.22
2018-10-06T16:32:25.025Z,81.41
2018-10-06T16:33:25.094Z,81.21
2018-10-06T16:34:25.004Z,81.82
2018-10-06T16:35:24.996Z,82.22
2018-10-06T16:36:24.980Z,82.42
2018-10-06T16:37:24.969Z,82.12
2018-10-06T16:38:24.962Z,82.87
2018-10-06T16:39:24.968Z,82.97
2018-10-06T16:40:24.945Z,82.87
2018-10-06T16:41:24.953Z,82.87
2018-10-06T16:42:24.920Z,83.27